KROX/ROX METAR and TAF weather

Enter ICAO airport designator
Station Type Date Time Source
KROX METAR 2018/12/15 21:35 UTC NOAA

KROX 152135Z AUTO 18016G20KT 10SM CLR 07/M02 A2965 RMK AO2


Station Type Date Time Source
KROX Decoded METAR 2018/12/15 21:35 UTC NOAA

Roseau, Roseau Municipal Airport/Rudy Billberg Field, MN, United States (KROX) 48-51N 095-42W
Dec 15, 2018 - 04:35 PM EST / 2018.12.15 2135 UTC
Wind: from the S (180 degrees) at 18 MPH (16 KT) gusting to 23 MPH (20 KT):0
Visibility: 10 mile(s):0
Sky conditions: clear
Temperature: 44 F (7 C)
Dew Point: 28 F (-2 C)
Relative Humidity: 52%
Pressure (altimeter): 29.65 in. Hg (1004 hPa)
ob: KROX 152135Z AUTO 18016G20KT 10SM CLR 07/M02 A2965 RMK AO2
cycle: 21

Station Type Date Time Source
KROX TAF UTC NOAA

Error!


Example: see airport list